Time;durP1;ratioP1;P1;durP2;ratioP2;P2;SDS_P1;SDS_P2;PMS_P1;PMS_P2;Temp;Humidity;BMP_temperature;BMP_pressure;BME280_temperature;BME280_humidity;BME280_pressure;Samples;Min_cycle;Max_cycle;Signal;HPM_P1;HPM_P2
2022/07/19 00:02:14;;;;;;;0.95;0.20;;;;;;;15.55;69.02;100858.08;1692449;83;21527;-67
2022/07/19 00:04:40;;;;;;;;;;;;;;;15.52;69.14;100848.58;1703176;83;21080;-66
2022/07/19 00:07:08;;;;;;;1.00;0.17;;;;;;;15.50;69.50;100852.00;1698347;83;20126;-67
2022/07/19 00:09:35;;;;;;;3.52;0.20;;;;;;;15.46;69.86;100847.23;1701571;83;20974;-65
2022/07/19 00:12:03;;;;;;;1.65;0.15;;;;;;;15.45;70.07;100852.31;1700272;82;20946;-67
2022/07/19 00:14:29;;;;;;;0.30;0.20;;;;;;;15.43;70.16;100848.48;1699540;83;21005;-67
2022/07/19 00:16:55;;;;;;;1.55;0.23;;;;;;;15.45;70.27;100844.25;1700739;83;21041;-69
2022/07/19 00:19:22;;;;;;;1.95;0.13;;;;;;;15.47;70.36;100844.87;1700015;83;21132;-67
2022/07/19 00:21:49;;;;;;;0.50;0.20;;;;;;;15.50;70.20;100847.97;1700673;83;20993;-67
2022/07/19 00:24:15;;;;;;;1.20;0.20;;;;;;;15.52;70.06;100849.92;1699763;83;21065;-68
2022/07/19 00:26:41;;;;;;;1.65;0.30;;;;;;;15.53;69.92;100845.37;1727263;82;21030;-67
2022/07/19 00:29:07;;;;;;;0.80;0.20;;;;;;;15.55;69.96;100848.14;1710119;83;22415;-67
2022/07/19 00:31:33;;;;;;;0.30;0.17;;;;;;;15.56;69.84;100843.09;1729085;82;21167;-66
2022/07/19 00:34:00;;;;;;;0.40;0.35;;;;;;;15.56;69.68;100844.44;1730015;80;20971;-66
2022/07/19 00:36:26;;;;;;;2.65;0.40;;;;;;;15.54;69.59;100843.01;1701949;83;21322;-67
2022/07/19 00:38:53;;;;;;;1.85;0.28;;;;;;;15.55;69.65;100844.11;1727228;81;21473;-66
2022/07/19 00:41:19;;;;;;;0.40;0.40;;;;;;;15.53;69.87;100845.37;1727944;83;20960;-66
2022/07/19 00:43:45;;;;;;;1.47;0.30;;;;;;;15.48;70.08;100839.30;1702340;83;21010;-66
2022/07/19 00:46:18;;;;;;;0.40;0.10;;;;;;;15.45;70.32;100839.70;1727407;82;21000;-66
2022/07/19 00:48:46;;;;;;;1.25;0.20;;;;;;;15.43;70.71;100839.61;1729282;81;20964;-67
2022/07/19 00:51:15;;;;;;;2.37;0.30;;;;;;;15.39;70.80;100840.54;1700203;83;21007;-66
2022/07/19 00:53:43;;;;;;;1.15;0.35;;;;;;;15.35;71.12;100841.96;1730637;81;20962;-66
2022/07/19 00:56:12;;;;;;;0.40;0.20;;;;;;;15.31;71.38;100842.92;1700760;83;21037;-66
2022/07/19 00:58:41;;;;;;;0.23;0.23;;;;;;;15.28;71.60;100837.14;1695436;83;21016;-66
2022/07/19 01:01:09;;;;;;;1.77;0.70;;;;;;;15.26;71.74;100835.99;1710810;82;21037;-65
2022/07/19 01:03:39;;;;;;;0.20;0.20;;;;;;;15.26;71.76;100840.02;1731248;81;21002;-66
2022/07/19 01:06:08;;;;;;;0.20;0.10;;;;;;;15.27;71.96;100834.94;1734973;81;21038;-65
2022/07/19 01:08:37;;;;;;;4.83;0.20;;;;;;;15.27;71.91;100826.07;1743210;81;21006;-66
2022/07/19 01:11:05;;;;;;;0.30;0.23;;;;;;;15.28;71.96;100828.55;1716453;81;21017;-67
2022/07/19 01:13:33;;;;;;;0.93;0.30;;;;;;;15.29;71.83;100826.16;1649858;85;21083;-67
2022/07/19 01:16:00;;;;;;;1.10;0.10;;;;;;;15.33;71.71;100822.55;1653135;84;21097;-66
2022/07/19 01:18:28;;;;;;;0.53;0.20;;;;;;;15.36;71.57;100824.30;1665942;84;21090;-68
2022/07/19 01:20:56;;;;;;;0.40;0.40;;;;;;;15.41;71.41;100828.22;1695832;83;21026;-66
2022/07/19 01:23:22;;;;;;;1.12;0.20;;;;;;;15.45;71.12;100824.92;1674366;84;21071;-67
2022/07/19 01:25:49;;;;;;;1.02;0.20;;;;;;;15.50;71.10;100822.45;1676406;84;21059;-66
2022/07/19 01:28:16;;;;;;;0.55;0.30;;;;;;;15.53;70.87;100824.70;1676047;84;21015;-64
2022/07/19 01:30:42;;;;;;;;;;;;;;;15.20;71.11;100768.36;1672062;84;21490;-65
2022/07/19 01:33:08;;;;;;;0.30;0.20;;;;;;;15.55;71.28;100820.46;1676887;84;20179;-66
2022/07/19 01:35:35;;;;;;;0.30;0.20;;;;;;;15.48;71.41;100818.30;1657357;85;21068;-67
2022/07/19 01:38:02;;;;;;;0.40;0.30;;;;;;;15.50;71.38;100815.73;1707330;82;21007;-66
2022/07/19 01:40:28;;;;;;;;;;;;;;;15.54;71.14;100818.83;1687225;83;21027;-66
2022/07/19 01:42:56;;;;;;;1.12;0.30;;;;;;;15.56;71.09;100818.09;1704917;82;20105;-66
2022/07/19 01:45:22;;;;;;;0.90;0.30;;;;;;;15.52;71.44;100816.84;1718891;81;21089;-66
2022/07/19 01:47:49;;;;;;;1.65;0.60;;;;;;;15.54;71.21;100818.30;1719620;81;21029;-66
2022/07/19 01:50:17;;;;;;;1.30;0.62;;;;;;;15.59;71.10;100820.34;1731033;81;20979;-67
2022/07/19 01:52:45;;;;;;;1.15;0.37;;;;;;;15.62;71.08;100823.97;1728322;81;21046;-67
2022/07/19 01:55:11;;;;;;;0.30;0.30;;;;;;;15.64;71.19;100822.42;1727319;78;21046;-66
2022/07/19 01:57:37;;;;;;;;;;;;;;;15.65;71.29;100828.94;1686461;84;21108;-66
2022/07/19 02:00:07;;;;;;;2.37;0.30;;;;;;;15.63;71.30;100832.32;1686440;83;20223;-66
2022/07/19 02:02:37;;;;;;;0.47;0.20;;;;;;;15.57;71.45;100829.13;1677073;84;21380;-66
2022/07/19 02:05:05;;;;;;;0.70;0.30;;;;;;;15.57;71.51;100826.45;1677275;84;20994;-66
2022/07/19 02:07:33;;;;;;;1.57;0.40;;;;;;;15.59;71.51;100827.06;1676399;84;21542;-72
2022/07/19 02:10:00;;;;;;;3.30;0.55;;;;;;;15.62;71.50;100832.55;1674894;84;21116;-70
2022/07/19 02:12:26;;;;;;;1.10;0.70;;;;;;;15.62;71.59;100828.00;1704937;82;21015;-68
2022/07/19 02:14:53;;;;;;;0.47;0.47;;;;;;;15.75;72.40;100825.84;1726685;82;21060;-70
2022/07/19 02:17:21;;;;;;;0.62;0.33;;;;;;;15.75;72.40;100825.84;1725647;82;21157;-70
2022/07/19 02:19:47;;;;;;;;;;;;;;;15.79;72.10;100839.69;1732208;82;21033;-70
2022/07/19 02:22:13;;;;;;;3.37;0.53;;;;;;;15.82;72.17;100831.17;1721677;82;20134;-70
2022/07/19 02:24:42;;;;;;;0.57;0.57;;;;;;;15.81;72.08;100827.67;1698989;83;21081;-71
2022/07/19 02:27:10;;;;;;;1.92;0.62;;;;;;;15.87;71.82;100828.69;1700844;83;21058;-70
2022/07/19 02:29:38;;;;;;;0.72;0.33;;;;;;;15.94;71.59;100830.84;1701706;83;21069;-68
2022/07/19 02:32:06;;;;;;;1.07;0.47;;;;;;;15.96;71.37;100829.59;1702185;83;21073;-70
2022/07/19 02:34:34;;;;;;;1.22;0.33;;;;;;;15.98;71.19;100833.41;1703649;83;21509;-70
2022/07/19 02:37:02;;;;;;;2.67;0.75;;;;;;;16.00;70.84;100832.68;1676071;83;21581;-70
2022/07/19 02:39:28;;;;;;;3.05;0.53;;;;;;;16.04;70.77;100837.94;1681683;83;20994;-72
2022/07/19 02:41:55;;;;;;;2.02;0.90;;;;;;;16.08;70.86;100835.12;1681696;83;21107;-70
2022/07/19 02:44:22;;;;;;;0.65;0.30;;;;;;;16.13;70.80;100835.84;1676264;84;21017;-70
2022/07/19 02:46:50;;;;;;;4.30;0.65;;;;;;;16.19;70.93;100832.83;1663439;83;21485;-72
2022/07/19 02:49:16;;;;;;;0.78;0.70;;;;;;;16.20;71.06;100831.77;1684376;83;21442;-70
2022/07/19 02:51:42;;;;;;;1.12;0.50;;;;;;;16.20;71.06;100831.77;1673544;84;21546;-67
2022/07/19 02:54:09;;;;;;;1.12;0.35;;;;;;;16.23;71.04;100836.73;1679308;83;21623;-70
2022/07/19 02:56:38;;;;;;;1.05;0.40;;;;;;;16.23;70.22;100824.10;1686613;83;21026;-70
2022/07/19 02:59:05;;;;;;;2.85;0.57;;;;;;;16.24;70.08;100820.91;1719615;82;21123;-69
2022/07/19 03:01:31;;;;;;;2.50;0.75;;;;;;;16.24;70.08;100820.91;1719364;82;21024;-66
2022/07/19 03:03:59;;;;;;;1.72;0.82;;;;;;;16.24;69.81;100823.08;1726943;82;21022;-70
2022/07/19 03:06:26;;;;;;;1.52;0.40;;;;;;;16.25;69.74;100822.55;1695074;83;21036;-71
2022/07/19 03:08:52;;;;;;;2.87;0.93;;;;;;;16.31;69.67;100823.87;1720579;82;21535;-69
2022/07/19 03:11:20;;;;;;;3.90;0.60;;;;;;;16.35;69.32;100820.23;1718030;82;20972;-71
2022/07/19 03:13:46;;;;;;;0.95;0.70;;;;;;;16.35;69.32;100820.23;1691618;83;21023;-70
2022/07/19 03:16:12;;;;;;;3.33;1.17;;;;;;;16.41;69.48;100815.34;1691342;83;21154;-69
2022/07/19 03:18:40;;;;;;;1.00;0.47;;;;;;;16.55;69.79;100816.08;1691780;83;21044;-69
2022/07/19 03:21:06;;;;;;;;;;;;;;;16.55;69.79;100816.08;1694098;83;21024;-69
2022/07/19 03:23:35;;;;;;;5.05;1.70;;;;;;;16.62;69.36;100817.40;1682948;83;20129;-68
2022/07/19 03:26:03;;;;;;;1.90;1.12;;;;;;;16.72;68.71;100813.70;1693211;83;21551;-69
2022/07/19 03:28:29;;;;;;;3.70;0.98;;;;;;;16.72;68.71;100813.70;1693243;83;21115;-69
2022/07/19 03:30:55;;;;;;;1.55;0.62;;;;;;;16.84;68.00;100819.23;1693527;83;21585;-70
2022/07/19 03:33:21;;;;;;;3.75;0.98;;;;;;;16.92;68.01;100816.29;1695878;82;21103;-69
2022/07/19 03:35:49;;;;;;;2.62;0.50;;;;;;;17.01;67.64;100815.48;1701397;82;21020;-71
2022/07/19 03:38:16;;;;;;;1.12;0.70;;;;;;;17.10;66.68;100814.16;1659134;85;21608;-71
2022/07/19 03:40:47;;;;;;;1.00;0.30;;;;;;;17.20;66.19;100808.31;1681681;83;21035;-70
2022/07/19 03:43:15;;;;;;;1.40;0.75;;;;;;;17.28;65.53;100815.56;1655562;84;21018;-70
2022/07/19 03:45:43;;;;;;;2.05;0.53;;;;;;;17.36;65.11;100813.11;1674261;84;21108;-71
2022/07/19 03:48:11;;;;;;;1.45;0.65;;;;;;;17.44;65.85;100810.66;1735809;81;21070;-69
2022/07/19 03:50:38;;;;;;;1.50;0.55;;;;;;;17.52;65.77;100809.03;1705644;83;21146;-70
2022/07/19 03:53:05;;;;;;;2.60;0.50;;;;;;;17.61;66.61;100814.44;1704177;83;21131;-67
2022/07/19 03:55:31;;;;;;;1.70;0.40;;;;;;;17.69;67.01;100812.79;1707937;82;20988;-69
2022/07/19 03:57:58;;;;;;;1.55;0.68;;;;;;;17.77;66.11;100809.50;1704036;82;21563;-71
2022/07/19 04:00:24;;;;;;;;;;;;;;;17.87;66.43;100812.52;1718942;82;21138;-65
2022/07/19 04:02:50;;;;;;;1.82;1.00;;;;;;;17.97;66.36;100816.03;1683721;83;20247;-70
2022/07/19 04:05:16;;;;;;;39.78;30.77;;;;;;;18.05;66.58;100814.39;1692246;83;21024;-67
2022/07/19 04:07:44;;;;;;;8.93;8.00;;;;;;;18.26;66.02;100811.73;1690229;83;21096;-69
2022/07/19 04:10:10;;;;;;;;;;;;;;;18.53;64.60;100810.84;1693585;83;21021;-71
2022/07/19 04:12:36;;;;;;;7.40;6.80;;;;;;;18.87;62.60;100811.20;1694976;81;20461;-68
2022/07/19 04:15:04;;;;;;;2.35;1.15;;;;;;;19.14;61.96;100813.50;1703320;83;21013;-69
2022/07/19 04:17:32;;;;;;;2.40;1.60;;;;;;;19.40;60.28;100806.27;1695458;83;21004;-74
2022/07/19 04:19:58;;;;;;;;;;;;;;;19.70;58.99;100812.05;1699984;83;21060;-69
2022/07/19 04:22:25;;;;;;;1.47;0.68;;;;;;;20.02;57.46;100803.03;1698931;81;20155;-71
2022/07/19 04:24:51;;;;;;;1.10;0.93;;;;;;;20.30;56.27;100809.51;1708675;83;21008;-69
2022/07/19 04:27:18;;;;;;;3.22;0.42;;;;;;;20.53;55.62;100807.25;1704339;83;21620;-69
2022/07/19 04:29:44;;;;;;;2.37;1.12;;;;;;;20.66;54.06;100803.42;1695051;83;22308;-68
2022/07/19 04:32:10;;;;;;;4.30;0.40;;;;;;;20.71;54.79;100808.94;1696648;83;21115;-69
2022/07/19 04:34:36;;;;;;;;;;;;;;;20.71;53.80;100808.94;1699352;83;20996;-69
2022/07/19 04:37:03;;;;;;;3.52;0.17;;;;;;;20.64;53.93;100810.16;1691122;83;20435;-69
2022/07/19 04:39:29;;;;;;;0.47;0.10;;;;;;;20.51;53.95;100811.25;1696376;83;21013;-73
2022/07/19 04:41:56;;;;;;;0.78;0.17;;;;;;;20.39;54.20;100805.89;1695702;83;20973;-70
2022/07/19 04:44:22;;;;;;;;;;;;;;;20.30;54.48;100812.22;1702735;82;21087;-71
2022/07/19 04:46:48;;;;;;;1.55;0.15;;;;;;;20.22;54.53;100816.67;1704044;83;20446;-71
2022/07/19 04:49:14;;;;;;;;;;;;;;;20.08;54.45;100807.17;1699785;83;21072;-71
2022/07/19 04:51:46;;;;;;;1.15;0.20;;;;;;;19.99;54.53;100817.57;1688799;83;20203;-70
2022/07/19 04:54:12;;;;;;;2.37;0.37;;;;;;;19.87;54.72;100816.22;1696200;83;21057;-71
2022/07/19 04:56:40;;;;;;;2.77;0.20;;;;;;;19.81;54.54;100816.64;1693188;83;21035;-70
2022/07/19 04:59:08;;;;;;;5.72;0.72;;;;;;;19.81;55.09;100816.64;1695817;83;21056;-70
2022/07/19 05:01:34;;;;;;;3.60;0.45;;;;;;;19.83;55.00;100820.47;1704236;83;21037;-60
2022/07/19 05:04:00;;;;;;;1.52;0.70;;;;;;;19.85;55.02;100822.41;1705702;83;21081;-64
2022/07/19 05:06:28;;;;;;;1.80;0.57;;;;;;;19.88;55.16;100828.70;1680430;83;21066;-63
2022/07/19 05:08:56;;;;;;;3.22;0.40;;;;;;;19.91;54.54;100822.83;1689799;83;20989;-65
2022/07/19 05:11:23;;;;;;;2.60;1.02;;;;;;;19.95;54.44;100829.39;1696428;83;21663;-62
2022/07/19 05:13:51;;;;;;;5.28;0.55;;;;;;;19.97;54.62;100831.88;1699078;83;21063;-63
2022/07/19 05:16:18;;;;;;;2.50;0.40;;;;;;;19.94;54.84;100827.73;1713368;83;21068;-61
2022/07/19 05:18:45;;;;;;;1.40;0.42;;;;;;;19.92;55.16;100833.11;1707804;83;21022;-62
2022/07/19 05:21:11;;;;;;;1.02;0.30;;;;;;;19.94;54.99;100828.28;1705571;83;21060;-63
2022/07/19 05:23:39;;;;;;;1.25;0.55;;;;;;;19.96;54.22;100826.97;1700823;83;21738;-62
2022/07/19 05:26:05;;;;;;;2.85;0.62;;;;;;;20.14;54.21;100831.41;1695122;83;21020;-74
2022/07/19 05:28:31;;;;;;;1.35;0.40;;;;;;;20.42;53.56;100823.83;1700421;83;21066;-65
2022/07/19 05:30:58;;;;;;;2.72;0.57;;;;;;;20.87;53.47;100827.65;1696874;83;21087;-67
2022/07/19 05:33:24;;;;;;;0.90;0.88;;;;;;;21.46;51.48;100825.89;1697275;83;21595;-68
2022/07/19 05:35:50;;;;;;;1.62;0.40;;;;;;;21.81;50.24;100816.58;1696190;83;21032;-68
2022/07/19 05:38:19;;;;;;;1.15;0.70;;;;;;;22.09;48.94;100820.20;1698608;83;21156;-69
2022/07/19 05:40:45;;;;;;;1.98;0.80;;;;;;;22.25;48.80;100822.56;1695569;83;21025;-68
2022/07/19 05:43:11;;;;;;;1.62;0.68;;;;;;;22.34;48.48;100821.08;1699543;83;21016;-70
2022/07/19 05:45:37;;;;;;;4.83;2.85;;;;;;;22.07;47.75;100774.30;1697030;83;21037;-69
2022/07/19 05:48:05;;;;;;;3.52;1.00;;;;;;;22.30;48.97;100819.92;1694875;83;21132;-69
2022/07/19 05:50:32;;;;;;;2.15;1.27;;;;;;;22.35;48.09;100822.70;1698396;83;22210;-69
2022/07/19 05:52:58;;;;;;;2.90;1.40;;;;;;;22.33;48.42;100820.23;1702093;83;21140;-69
2022/07/19 05:55:24;;;;;;;4.60;1.80;;;;;;;22.30;49.25;100821.27;1696527;83;21028;-68
2022/07/19 05:57:50;;;;;;;1.27;0.60;;;;;;;22.50;49.30;100823.40;1687578;83;21655;-70
2022/07/19 06:00:17;;;;;;;1.10;0.85;;;;;;;22.77;48.48;100827.45;1704011;83;21591;-69
2022/07/19 06:02:43;;;;;;;3.25;0.80;;;;;;;23.17;47.15;100821.28;1718187;82;21016;-67
2022/07/19 06:05:12;;;;;;;2.25;0.30;;;;;;;23.43;46.24;100820.41;1727552;82;21592;-67
2022/07/19 06:07:39;;;;;;;1.02;0.40;;;;;;;23.57;45.84;100822.66;1725506;82;21625;-70
2022/07/19 06:10:08;;;;;;;1.85;0.20;;;;;;;23.62;45.62;100820.78;1721568;83;21469;-69
2022/07/19 06:12:35;;;;;;;1.85;0.72;;;;;;;23.61;45.71;100821.86;1703606;83;21061;-70
2022/07/19 06:15:01;;;;;;;2.02;1.92;;;;;;;23.51;46.08;100821.27;1695039;84;21044;-67
2022/07/19 06:17:29;;;;;;;1.47;0.70;;;;;;;23.33;46.38;100827.13;1695316;83;20995;-67
2022/07/19 06:19:56;;;;;;;1.27;0.47;;;;;;;23.04;46.45;100824.74;1691213;83;21498;-68
2022/07/19 06:22:22;;;;;;;2.47;0.45;;;;;;;22.67;47.69;100822.75;1696431;83;20979;-69
2022/07/19 06:24:48;;;;;;;1.32;0.30;;;;;;;22.26;48.86;100822.31;1672779;85;20977;-67
2022/07/19 06:27:15;;;;;;;2.47;0.23;;;;;;;21.88;49.76;100822.66;1687805;84;21053;-67
2022/07/19 06:29:42;;;;;;;1.92;0.40;;;;;;;21.62;51.20;100824.20;1679193;84;21000;-67
2022/07/19 06:32:08;;;;;;;0.72;0.40;;;;;;;21.42;51.74;100818.45;1710080;83;21218;-68
2022/07/19 06:34:34;;;;;;;1.67;0.40;;;;;;;21.20;52.51;100815.97;1670167;84;21099;-67
2022/07/19 06:37:01;;;;;;;3.50;0.55;;;;;;;20.99;53.13;100815.38;1670254;84;21123;-69
2022/07/19 06:39:27;;;;;;;4.83;4.53;;;;;;;20.85;54.26;100811.33;1651729;85;21580;-67
2022/07/19 06:41:54;;;;;;;3.62;3.35;;;;;;;20.75;55.11;100818.75;1710396;82;21101;-68
2022/07/19 06:44:20;;;;;;;2.52;1.10;;;;;;;20.67;55.07;100815.91;1667859;83;22118;-68
2022/07/19 06:46:46;;;;;;;2.58;2.37;;;;;;;20.60;55.16;100816.59;1659446;85;21040;-68
2022/07/19 06:49:12;;;;;;;0.80;0.37;;;;;;;20.50;55.37;100815.03;1661532;85;21623;-68
2022/07/19 06:51:38;;;;;;;2.12;0.42;;;;;;;20.37;55.50;100814.80;1659463;85;21101;-69
2022/07/19 06:54:04;;;;;;;;;;;;;;;20.27;56.02;100810.02;1690852;83;20998;-68
2022/07/19 06:56:31;;;;;;;0.50;0.30;;;;;;;20.25;56.23;100813.49;1704080;82;20186;-70
2022/07/19 06:58:57;;;;;;;0.90;0.35;;;;;;;20.17;57.01;100807.94;1701732;82;21292;-66
2022/07/19 07:01:23;;;;;;;;;;;;;;;20.17;57.44;100812.50;1712497;82;21757;-69
2022/07/19 07:03:49;;;;;;;4.40;0.68;;;;;;;20.17;57.61;100817.41;1733695;82;20488;-67
2022/07/19 07:06:15;;;;;;;3.98;0.23;;;;;;;20.10;57.09;100817.22;1736838;81;21077;-70
2022/07/19 07:08:42;;;;;;;0.80;0.60;;;;;;;20.10;57.30;100811.81;1741333;82;21007;-70
2022/07/19 07:11:09;;;;;;;1.55;0.65;;;;;;;20.09;57.48;100821.82;1728365;81;20995;-69
2022/07/19 07:13:35;;;;;;;;;;;;;;;20.09;58.03;100829.94;1727343;82;21029;-69
2022/07/19 07:16:01;;;;;;;1.55;0.47;;;;;;;20.08;58.35;100818.84;1747311;81;20143;-70
2022/07/19 07:18:28;;;;;;;1.22;0.37;;;;;;;20.01;59.60;100828.44;1747044;81;20980;-68
2022/07/19 07:20:54;;;;;;;1.32;0.37;;;;;;;19.98;59.00;100836.20;1745483;81;20946;-72
2022/07/19 07:23:22;;;;;;;3.70;0.42;;;;;;;19.87;59.21;100835.16;1731694;81;21100;-69
2022/07/19 07:25:48;;;;;;;2.27;0.70;;;;;;;19.79;59.61;100828.77;1744072;81;21039;-68
2022/07/19 07:28:14;;;;;;;1.57;0.85;;;;;;;19.74;60.30;100832.20;1717392;82;21078;-69
2022/07/19 07:30:42;;;;;;;1.37;0.78;;;;;;;19.74;60.96;100836.77;1740530;81;21192;-73
2022/07/19 07:33:08;;;;;;;3.12;2.27;;;;;;;19.74;60.38;100839.47;1745842;81;20968;-68
2022/07/19 07:35:34;;;;;;;3.27;0.80;;;;;;;19.73;60.43;100845.95;1712021;83;21137;-66
2022/07/19 07:38:00;;;;;;;2.05;0.62;;;;;;;19.76;60.87;100841.41;1700265;82;21044;-68
2022/07/19 07:40:26;;;;;;;2.80;1.57;;;;;;;19.81;60.70;100848.29;1715921;83;21096;-69
2022/07/19 07:42:52;;;;;;;3.12;2.92;;;;;;;19.88;60.78;100846.82;1701711;82;21559;-68
2022/07/19 07:45:19;;;;;;;;;;;;;;;19.95;60.54;100848.88;1729645;82;20986;-68
2022/07/19 07:47:46;;;;;;;2.80;0.57;;;;;;;20.03;60.09;100847.14;1734735;82;20153;-68
2022/07/19 07:50:12;;;;;;;;;;;;;;;19.99;59.30;100845.44;1707744;84;21008;-69
2022/07/19 07:52:38;;;;;;;2.35;0.75;;;;;;;20.00;59.23;100844.39;1696375;84;20153;-72
2022/07/19 07:55:05;;;;;;;1.22;0.30;;;;;;;19.97;58.68;100850.81;1666983;84;21128;-67
2022/07/19 07:57:32;;;;;;;5.00;0.88;;;;;;;19.95;59.35;100846.98;1682322;84;21058;-68
2022/07/19 07:59:58;;;;;;;2.90;0.78;;;;;;;19.93;59.30;100847.75;1666710;85;21057;-67
2022/07/19 08:02:24;;;;;;;1.62;0.50;;;;;;;19.93;59.21;100850.46;1727394;81;20973;-69
2022/07/19 08:04:50;;;;;;;3.70;1.57;;;;;;;19.90;58.54;100845.52;1694505;84;21073;-70
2022/07/19 08:07:17;;;;;;;3.98;3.17;;;;;;;19.91;59.63;100851.23;1729304;81;21563;-66
2022/07/19 08:09:43;;;;;;;3.10;0.80;;;;;;;19.91;60.34;100851.23;1708306;82;21017;-68
2022/07/19 08:12:11;;;;;;;4.83;4.45;;;;;;;19.93;60.21;100852.32;1680812;83;21077;-67
2022/07/19 08:14:37;;;;;;;7.80;7.00;;;;;;;19.92;62.34;100850.16;1734891;81;21588;-69
2022/07/19 08:17:05;;;;;;;2.98;2.62;;;;;;;19.90;62.78;100853.63;1734438;81;21085;-69
2022/07/19 08:19:31;;;;;;;2.10;1.57;;;;;;;19.93;63.47;100854.52;1693130;84;21119;-69
2022/07/19 08:21:58;;;;;;;2.30;0.95;;;;;;;19.89;62.41;100850.65;1730163;81;21560;-68
2022/07/19 08:24:24;;;;;;;2.12;1.10;;;;;;;19.79;62.96;100855.81;1695827;84;20973;-69
2022/07/19 08:26:50;;;;;;;2.20;1.00;;;;;;;19.74;64.56;100851.64;1727255;83;21014;-69
2022/07/19 08:29:17;;;;;;;3.20;1.85;;;;;;;19.69;63.57;100852.33;1708542;84;21513;-70
2022/07/19 08:31:44;;;;;;;1.17;0.90;;;;;;;19.63;65.54;100848.69;1708894;84;21151;-69
2022/07/19 08:34:10;;;;;;;3.55;1.72;;;;;;;19.64;65.69;100847.61;1722872;82;20991;-70
2022/07/19 08:36:38;;;;;;;4.08;1.10;;;;;;;19.69;65.85;100849.63;1743667;81;21046;-68
2022/07/19 08:39:05;;;;;;;3.75;1.60;;;;;;;19.76;66.29;100844.11;1741806;82;21005;-70
2022/07/19 08:41:34;;;;;;;1.90;1.15;;;;;;;19.81;67.27;100840.17;1742378;81;21064;-67
2022/07/19 08:44:03;;;;;;;3.10;1.00;;;;;;;19.84;65.16;100842.41;1740859;82;21033;-68
2022/07/19 08:46:31;;;;;;;1.47;0.62;;;;;;;19.90;65.63;100837.94;1730220;81;20988;-68
2022/07/19 08:48:59;;;;;;;3.30;0.85;;;;;;;19.96;65.10;100832.91;1742871;81;21096;-75
2022/07/19 08:51:28;;;;;;;4.67;1.55;;;;;;;19.97;64.07;100833.22;1742821;81;21016;-69
2022/07/19 08:53:54;;;;;;;2.20;1.17;;;;;;;20.01;63.80;100838.44;1742778;82;20993;-68
2022/07/19 08:59:06;;;;;;;3.50;3.12;;;;;;;20.14;63.21;100838.71;1739576;82;21005;-69
2022/07/19 09:01:34;;;;;;;1.62;1.50;;;;;;;20.21;62.59;100832.09;1730754;82;21025;-68
2022/07/19 09:04:10;;;;;;;1.55;0.95;;;;;;;20.32;62.89;100833.09;1733501;81;21096;-68
2022/07/19 09:06:45;;;;;;;2.52;1.17;;;;;;;20.41;61.37;100834.36;1727461;83;20962;-68
2022/07/19 09:09:17;;;;;;;2.50;1.70;;;;;;;20.45;61.20;100832.53;1708548;81;21037;-69
2022/07/19 09:11:48;;;;;;;1.62;1.22;;;;;;;20.46;61.78;100829.59;1708250;81;21115;-70
2022/07/19 09:14:20;;;;;;;1.10;0.68;;;;;;;20.54;62.00;100827.84;1723633;83;21004;-69
2022/07/19 09:17:01;;;;;;;2.10;1.40;;;;;;;20.67;61.89;100826.75;1708291;83;21065;-68
2022/07/19 09:19:32;;;;;;;2.42;1.12;;;;;;;20.82;61.53;100826.73;1731715;81;21573;-69
2022/07/19 09:22:06;;;;;;;3.92;1.27;;;;;;;20.92;60.81;100819.58;1729703;83;21123;-69
2022/07/19 09:24:43;;;;;;;2.47;0.85;;;;;;;20.97;60.45;100818.87;1729866;83;21021;-67
2022/07/19 09:27:16;;;;;;;2.12;1.30;;;;;;;21.03;59.78;100819.77;1722288;81;21137;-68
2022/07/19 09:29:46;;;;;;;1.50;0.85;;;;;;;21.00;59.83;100820.55;1720072;81;20942;-69
2022/07/19 09:32:16;;;;;;;2.98;1.15;;;;;;;20.94;59.27;100820.16;1726261;81;21577;-69
2022/07/19 09:34:54;;;;;;;5.08;2.80;;;;;;;20.90;59.81;100815.48;1723080;81;20970;-68
2022/07/19 09:37:29;;;;;;;2.08;0.60;;;;;;;20.88;60.61;100813.02;1726677;81;21048;-70
2022/07/19 09:40:04;;;;;;;3.52;2.65;;;;;;;20.89;63.16;100816.03;1727976;83;21032;-69
2022/07/19 09:42:43;;;;;;;1.55;1.22;;;;;;;20.75;62.28;100811.98;1728335;81;21580;-75
2022/07/19 09:46:32;;;;;;;0.93;0.93;;;;;;;20.55;64.85;100817.30;1785031;78;22904;-69
2022/07/19 09:49:13;;;;;;;4.05;2.25;;;;;;;20.37;66.25;100815.61;1729908;81;21498;-70
2022/07/19 09:51:49;;;;;;;2.22;2.02;;;;;;;20.27;67.03;100819.48;1687539;83;20995;-69
2022/07/19 09:54:19;;;;;;;2.55;2.45;;;;;;;20.19;67.98;100827.45;1716231;81;21017;-69
2022/07/19 09:56:49;;;;;;;1.45;0.57;;;;;;;20.09;68.19;100827.77;1728447;83;20986;-70
2022/07/19 09:59:18;;;;;;;1.45;0.50;;;;;;;19.99;69.02;100824.33;1710497;83;21006;-69
2022/07/19 10:01:50;;;;;;;1.12;0.50;;;;;;;19.88;70.11;100819.77;1709094;82;21023;-68
2022/07/19 10:04:21;;;;;;;3.20;2.25;;;;;;;19.80;70.94;100824.48;1676268;83;21549;-69
2022/07/19 10:06:50;;;;;;;0.82;0.30;;;;;;;19.73;71.33;100816.20;1703837;83;21082;-71
2022/07/19 10:09:20;;;;;;;0.98;0.20;;;;;;;19.69;71.50;100814.47;1707677;83;21521;-74
2022/07/19 10:11:46;;;;;;;0.60;0.20;;;;;;;19.68;73.16;100815.52;1703940;82;21062;-69
2022/07/19 10:14:13;;;;;;;0.25;0.25;;;;;;;19.69;72.48;100809.60;1691236;84;21066;-70
2022/07/19 10:17:09;;;;;;;;;;;;;;;19.71;72.55;100818.30;1687225;84;21493;-70
2022/07/19 10:19:46;;;;;;;3.12;0.30;;;;;;;19.76;71.71;100808.44;1692521;83;20400;-67
2022/07/19 10:22:14;;;;;;;;;;;;;;;19.76;71.69;100803.55;1699388;83;21001;-68
2022/07/19 10:24:52;;;;;;;1.00;0.68;;;;;;;19.51;71.71;100749.17;1723453;83;20147;-68
2022/07/19 10:27:29;;;;;;;1.55;0.40;;;;;;;19.93;71.62;100797.70;1715747;83;21486;-67
2022/07/19 10:30:15;;;;;;;0.80;0.57;;;;;;;20.17;71.94;100788.14;1726838;83;21086;-69
2022/07/19 10:32:45;;;;;;;4.17;3.98;;;;;;;20.40;70.26;100789.41;1725296;83;21152;-71
2022/07/19 10:35:27;;;;;;;1.07;1.00;;;;;;;20.64;69.11;100787.95;1669956;83;21044;-69
2022/07/19 10:38:10;;;;;;;2.20;0.42;;;;;;;20.85;66.80;100781.53;1660483;85;21624;-68
2022/07/19 10:40:43;;;;;;;1.82;0.10;;;;;;;21.02;65.20;100772.05;1672082;85;21128;-69
2022/07/19 10:43:14;;;;;;;0.40;0.40;;;;;;;21.19;64.36;100770.13;1659224;85;20981;-69
2022/07/19 10:46:04;;;;;;;0.80;0.30;;;;;;;21.29;64.61;100766.77;1656830;85;21138;-72
2022/07/19 10:48:48;;;;;;;0.82;0.37;;;;;;;21.37;64.26;100761.73;1664078;84;21672;-69
2022/07/19 10:51:34;;;;;;;2.25;0.50;;;;;;;21.51;63.52;100752.75;1665658;85;21069;-70
2022/07/19 10:54:06;;;;;;;0.20;0.10;;;;;;;21.59;62.63;100751.48;1672735;84;21277;-70
2022/07/19 10:56:38;;;;;;;0.98;0.10;;;;;;;21.70;62.21;100752.41;1714576;82;21026;-69
2022/07/19 10:59:08;;;;;;;0.82;0.82;;;;;;;21.74;62.04;100751.67;1739982;80;21026;-69
2022/07/19 11:01:36;;;;;;;2.27;0.33;;;;;;;21.87;62.04;100745.05;1726019;80;21050;-70
2022/07/19 11:04:33;;;;;;;0.40;0.20;;;;;;;22.05;60.55;100740.34;1723448;82;21538;-69
2022/07/19 11:07:19;;;;;;;0.82;0.20;;;;;;;22.18;59.24;100739.13;1720275;82;21069;-71
2022/07/19 11:09:53;;;;;;;0.45;0.20;;;;;;;22.21;58.95;100738.09;1703381;82;21519;-70
2022/07/19 11:12:31;;;;;;;1.52;0.50;;;;;;;22.24;58.41;100736.20;1718444;82;21097;-70
2022/07/19 11:15:01;;;;;;;1.27;0.20;;;;;;;22.30;58.28;100728.95;1703106;83;21053;-69
2022/07/19 11:17:27;;;;;;;1.95;1.85;;;;;;;22.45;57.49;100732.34;1715420;81;21570;-68
2022/07/19 11:20:12;;;;;;;0.62;0.62;;;;;;;22.58;57.64;100733.28;1717354;82;21034;-68
2022/07/19 11:22:45;;;;;;;0.78;0.30;;;;;;;22.69;56.13;100728.20;1690988;81;21101;-68
2022/07/19 11:25:16;;;;;;;1.45;0.40;;;;;;;22.69;54.03;100733.64;1656960;85;21071;-68
2022/07/19 11:27:47;;;;;;;0.50;0.23;;;;;;;22.64;54.16;100732.27;1673444;85;21018;-68
2022/07/19 11:30:15;;;;;;;1.12;0.72;;;;;;;22.66;53.86;100727.39;1655745;85;21062;-70
2022/07/19 11:32:43;;;;;;;1.40;0.57;;;;;;;22.72;53.77;100727.70;1663338;85;21042;-68
2022/07/19 11:35:14;;;;;;;1.05;1.05;;;;;;;22.72;53.68;100723.62;1637395;85;22122;-71
2022/07/19 11:37:41;;;;;;;0.10;0.10;;;;;;;22.80;53.51;100716.88;1613019;87;21022;-69
2022/07/19 11:40:10;;;;;;;1.10;0.23;;;;;;;22.87;53.55;100709.88;1631593;86;21077;-69